Time;durP1;ratioP1;P1;durP2;ratioP2;P2;SDS_P1;SDS_P2;PMS_P1;PMS_P2;Temp;Humidity;BMP_temperature;BMP_pressure;BME280_temperature;BME280_humidity;BME280_pressure;Samples;Min_cycle;Max_cycle;Signal;HPM_P1;HPM_P2
2020/12/15 00:01:53;;;;;;;23.08;13.07;;;0.50;97.20;;;;;;5052099;28;20488;-82
2020/12/15 00:04:20;;;;;;;20.70;13.88;;;0.50;97.20;;;;;;5052620;28;20041;-80
2020/12/15 00:06:46;;;;;;;22.70;14.93;;;0.50;97.40;;;;;;5054019;28;20050;-85
2020/12/15 00:09:12;;;;;;;19.65;14.05;;;0.50;97.30;;;;;;5052788;28;20128;-80
2020/12/15 00:11:38;;;;;;;23.60;14.60;;;0.40;97.10;;;;;;5052419;28;20084;-80
2020/12/15 00:14:03;;;;;;;20.85;14.45;;;0.40;97.10;;;;;;5052638;28;20108;-80
2020/12/15 00:16:29;;;;;;;19.83;14.18;;;0.30;97.10;;;;;;5053250;28;20021;-83
2020/12/15 00:18:54;;;;;;;23.48;13.90;;;0.30;97.00;;;;;;5056881;28;20028;-80
2020/12/15 00:21:22;;;;;;;23.52;15.07;;;0.30;97.00;;;;;;5056566;28;20412;-79
2020/12/15 00:23:49;;;;;;;26.25;14.38;;;0.30;96.90;;;;;;5058710;28;20021;-80
2020/12/15 00:26:15;;;;;;;25.75;13.90;;;0.20;97.30;;;;;;5058329;28;20059;-80
2020/12/15 00:28:43;;;;;;;21.35;14.55;;;0.40;97.30;;;;;;5057632;28;20103;-80
2020/12/15 00:31:09;;;;;;;25.08;15.85;;;0.20;97.50;;;;;;5057111;28;20060;-79
2020/12/15 00:33:35;;;;;;;21.08;14.90;;;0.20;97.70;;;;;;5056490;28;20075;-80
2020/12/15 00:36:01;;;;;;;23.52;14.95;;;0.20;97.70;;;;;;5056222;28;20025;-80
2020/12/15 00:38:26;;;;;;;23.45;16.00;;;0.20;97.70;;;;;;5056545;28;20483;-79
2020/12/15 00:40:52;;;;;;;22.88;15.40;;;0.20;97.70;;;;;;5056806;28;20065;-81
2020/12/15 00:43:18;;;;;;;27.45;14.57;;;0.20;97.70;;;;;;5056697;28;20243;-80
2020/12/15 00:45:47;;;;;;;24.80;15.02;;;0.10;97.90;;;;;;5055979;28;20032;-80
2020/12/15 00:48:12;;;;;;;30.88;15.63;;;0.20;97.70;;;;;;5058157;28;20465;-80
2020/12/15 00:50:39;;;;;;;20.83;14.07;;;0.30;97.80;;;;;;5055800;28;20035;-81
2020/12/15 00:53:05;;;;;;;27.15;14.63;;;0.20;97.80;;;;;;5055985;28;20120;-81
2020/12/15 00:55:31;;;;;;;24.60;15.13;;;0.20;98.00;;;;;;5056485;28;20039;-80
2020/12/15 00:57:56;;;;;;;23.52;15.05;;;0.20;98.00;;;;;;5055861;28;20029;-80
2020/12/15 01:00:22;;;;;;;21.35;14.55;;;0.30;97.80;;;;;;5055721;28;20025;-80
2020/12/15 01:02:47;;;;;;;25.38;15.65;;;0.30;97.80;;;;;;5056900;28;20120;-80
2020/12/15 01:05:14;;;;;;;27.48;14.38;;;0.30;97.60;;;;;;5056308;28;20383;-80
2020/12/15 01:07:39;;;;;;;25.45;14.98;;;0.30;97.40;;;;;;5056849;28;20535;-80
2020/12/15 01:10:06;;;;;;;24.55;14.95;;;0.20;97.60;;;;;;5055130;28;20063;-82
2020/12/15 01:12:32;;;;;;;26.30;15.10;;;0.20;98.00;;;;;;5055571;28;20085;-80
2020/12/15 01:14:58;;;;;;;21.80;14.88;;;0.20;97.90;;;;;;5055621;28;20025;-80
2020/12/15 01:17:24;;;;;;;21.23;14.45;;;0.20;97.70;;;;;;5055518;28;20072;-81
2020/12/15 01:19:50;;;;;;;33.22;13.93;;;0.50;97.90;;;;;;5055270;28;20038;-81
2020/12/15 01:22:15;;;;;;;26.75;15.45;;;0.30;97.70;;;;;;5054799;28;20029;-80
2020/12/15 01:24:41;;;;;;;26.25;14.77;;;0.20;97.60;;;;;;5054978;28;20044;-81
2020/12/15 01:27:07;;;;;;;27.63;14.30;;;0.20;97.90;;;;;;5056595;28;20040;-80
2020/12/15 01:29:32;;;;;;;20.85;14.00;;;0.20;97.80;;;;;;5055190;28;20112;-81
2020/12/15 01:32:02;;;;;;;26.42;15.50;;;0.20;97.90;;;;;;5056311;28;20364;-80
2020/12/15 01:34:28;;;;;;;23.48;15.02;;;0.10;97.70;;;;;;5054651;28;20056;-80
2020/12/15 01:36:54;;;;;;;29.27;14.23;;;0.10;98.00;;;;;;5054650;28;20396;-80
2020/12/15 01:39:19;;;;;;;21.65;13.60;;;0.20;97.90;;;;;;5054554;28;20108;-80
2020/12/15 01:41:45;;;;;;;22.08;14.40;;;0.20;97.10;;;;;;5054879;28;20040;-79
2020/12/15 01:44:11;;;;;;;28.10;14.45;;;0.10;97.50;;;;;;5054312;28;20048;-80
2020/12/15 01:46:37;;;;;;;25.23;15.38;;;0.10;97.70;;;;;;5055495;28;20032;-80
2020/12/15 01:49:03;;;;;;;26.88;15.52;;;0.00;98.30;;;;;;5054461;28;20029;-81
2020/12/15 01:51:30;;;;;;;21.88;14.13;;;0.00;98.10;;;;;;5054669;28;20025;-80
2020/12/15 01:53:59;;;;;;;26.13;13.75;;;0.00;98.10;;;;;;5054694;28;20052;-80
2020/12/15 01:56:26;;;;;;;23.40;14.05;;;0.00;97.80;;;;;;5053960;28;20024;-84
2020/12/15 01:58:57;;;;;;;25.15;14.25;;;0.00;97.80;;;;;;5054156;28;20461;-80
2020/12/15 02:01:24;;;;;;;22.05;14.25;;;0.10;97.70;;;;;;5054552;28;20031;-80
2020/12/15 02:03:50;;;;;;;22.15;13.55;;;0.00;97.60;;;;;;5054214;28;20064;-80
2020/12/15 02:06:20;;;;;;;21.92;14.73;;;0.00;97.50;;;;;;5054606;28;20040;-80
2020/12/15 02:08:46;;;;;;;28.73;13.52;;;0.00;97.80;;;;;;5054070;28;20017;-80
2020/12/15 02:11:13;;;;;;;22.45;13.32;;;-0.10;97.90;;;;;;5054274;28;20025;-80
2020/12/15 02:13:39;;;;;;;27.40;12.73;;;-0.10;97.90;;;;;;5055217;28;20021;-80
2020/12/15 02:16:14;;;;;;;20.70;13.18;;;0.00;97.00;;;;;;5054398;28;20476;-80
2020/12/15 02:18:41;;;;;;;22.00;13.33;;;0.00;97.00;;;;;;5054078;28;20063;-80
2020/12/15 02:21:08;;;;;;;24.17;13.13;;;0.00;97.60;;;;;;5054612;28;20484;-81
2020/12/15 02:23:34;;;;;;;21.65;14.20;;;0.00;97.70;;;;;;5054113;28;20379;-81
2020/12/15 02:26:07;;;;;;;26.65;13.85;;;0.00;97.70;;;;;;5053647;28;20043;-80
2020/12/15 02:28:36;;;;;;;31.48;14.40;;;0.10;97.90;;;;;;5053691;28;20017;-80
2020/12/15 02:31:03;;;;;;;27.42;15.20;;;0.00;97.90;;;;;;5054744;28;20028;-81
2020/12/15 02:33:30;;;;;;;27.17;14.50;;;0.00;97.90;;;;;;5053468;28;20079;-85
2020/12/15 02:35:56;;;;;;;27.70;14.93;;;0.10;98.00;;;;;;5054352;28;20036;-86
2020/12/15 02:38:22;;;;;;;21.98;14.45;;;0.10;97.80;;;;;;5053222;28;20032;-81
2020/12/15 02:40:47;;;;;;;27.30;15.85;;;0.10;98.00;;;;;;5052730;28;20033;-80
2020/12/15 02:43:13;;;;;;;32.33;14.57;;;0.20;97.80;;;;;;5054080;28;20033;-81
2020/12/15 02:45:39;;;;;;;25.23;14.23;;;0.20;97.30;;;;;;5053529;28;20037;-85
2020/12/15 02:48:04;;;;;;;24.08;15.48;;;0.20;97.40;;;;;;5053617;28;20472;-82
2020/12/15 02:50:30;;;;;;;25.92;14.73;;;0.10;97.90;;;;;;5054729;28;20036;-80
2020/12/15 02:52:56;;;;;;;28.40;15.02;;;0.20;98.00;;;;;;5053719;28;20024;-80
2020/12/15 02:55:22;;;;;;;23.35;14.15;;;0.20;97.30;;;;;;5053241;28;20526;-82
2020/12/15 02:57:49;;;;;;;24.02;13.23;;;0.20;97.40;;;;;;5053797;28;20397;-80
2020/12/15 03:00:17;;;;;;;27.00;14.93;;;0.10;97.20;;;;;;5053511;28;20482;-80
2020/12/15 03:02:43;;;;;;;24.98;14.95;;;0.20;97.70;;;;;;5053411;28;20028;-81
2020/12/15 03:05:11;;;;;;;23.23;14.45;;;0.10;97.60;;;;;;5053319;28;20575;-83
2020/12/15 03:07:36;;;;;;;24.83;14.65;;;0.10;97.70;;;;;;5054524;28;20032;-80
2020/12/15 03:10:04;;;;;;;28.50;14.18;;;0.10;97.30;;;;;;5053946;28;20029;-80
2020/12/15 03:12:30;;;;;;;45.75;14.40;;;0.10;97.70;;;;;;5054043;28;20060;-81
2020/12/15 03:14:56;;;;;;;23.25;14.32;;;0.10;97.60;;;;;;5053269;28;20025;-80
2020/12/15 03:17:21;;;;;;;31.27;14.60;;;0.10;97.60;;;;;;5053359;28;20043;-80
2020/12/15 03:19:47;;;;;;;21.45;13.70;;;0.20;97.50;;;;;;5053364;28;20055;-80
2020/12/15 03:22:16;;;;;;;26.65;14.48;;;0.20;97.10;;;;;;5053375;28;20036;-80
2020/12/15 03:24:42;;;;;;;27.23;15.57;;;0.20;97.30;;;;;;5053245;28;20123;-80
2020/12/15 03:27:08;;;;;;;27.92;15.38;;;0.10;97.50;;;;;;5053814;28;20028;-82
2020/12/15 03:29:34;;;;;;;27.88;15.77;;;0.20;97.80;;;;;;5053146;28;20025;-80
2020/12/15 03:32:00;;;;;;;36.50;16.75;;;0.20;97.50;;;;;;5053679;28;20381;-80
2020/12/15 03:34:25;;;;;;;22.20;14.30;;;0.20;97.50;;;;;;5053730;28;20027;-81
2020/12/15 03:36:51;;;;;;;26.20;14.32;;;0.20;97.50;;;;;;5052721;28;20117;-80
2020/12/15 03:39:17;;;;;;;24.45;14.02;;;0.10;97.00;;;;;;5053048;28;20025;-80
2020/12/15 03:41:42;;;;;;;26.75;15.23;;;0.10;97.10;;;;;;5053498;28;20028;-86
2020/12/15 03:44:08;;;;;;;23.50;15.32;;;0.10;97.50;;;;;;5053440;28;20132;-80
2020/12/15 03:46:34;;;;;;;22.13;12.82;;;0.10;97.80;;;;;;5053292;28;20029;-80
2020/12/15 03:48:59;;;;;;;25.20;13.82;;;0.10;97.20;;;;;;5054182;28;20066;-80
2020/12/15 03:51:25;;;;;;;24.73;14.93;;;0.10;97.00;;;;;;5053150;28;20051;-81
2020/12/15 03:53:51;;;;;;;24.65;13.98;;;0.10;97.10;;;;;;5057173;28;20033;-80
2020/12/15 03:56:16;;;;;;;23.90;14.63;;;0.00;97.40;;;;;;5056575;28;20067;-81
2020/12/15 03:58:42;;;;;;;24.45;14.52;;;-0.10;97.50;;;;;;5057106;28;20043;-80
2020/12/15 04:01:08;;;;;;;21.13;13.63;;;-0.10;97.40;;;;;;5057029;28;20017;-80
2020/12/15 04:03:33;;;;;;;21.42;14.07;;;-0.10;97.40;;;;;;5056856;28;20388;-79
2020/12/15 04:05:59;;;;;;;21.77;13.43;;;-0.10;97.50;;;;;;5056553;28;20033;-79
2020/12/15 04:08:28;;;;;;;18.88;12.18;;;0.00;97.50;;;;;;5058599;28;20024;-80
2020/12/15 04:10:54;;;;;;;20.00;11.73;;;0.00;97.40;;;;;;5056928;28;20074;-80
2020/12/15 04:13:19;;;;;;;20.00;13.65;;;0.00;96.90;;;;;;5056644;28;20029;-80
2020/12/15 04:15:48;;;;;;;19.58;12.60;;;-0.10;97.10;;;;;;5056129;28;20391;-80
2020/12/15 04:18:14;;;;;;;20.90;13.55;;;-0.10;97.00;;;;;;5056180;28;20083;-80
2020/12/15 04:20:40;;;;;;;20.95;13.25;;;-0.10;97.20;;;;;;5056627;28;20025;-80
2020/12/15 04:23:05;;;;;;;22.60;13.27;;;0.00;97.50;;;;;;5056544;28;20025;-80
2020/12/15 04:25:31;;;;;;;24.02;13.88;;;-0.10;97.40;;;;;;5056256;28;20045;-80
2020/12/15 04:27:57;;;;;;;20.65;13.73;;;-0.10;97.50;;;;;;5057351;28;20116;-80
2020/12/15 04:30:23;;;;;;;21.23;14.00;;;0.00;97.60;;;;;;5055596;28;20461;-81
2020/12/15 04:32:48;;;;;;;21.77;13.65;;;0.00;97.40;;;;;;5056772;28;20021;-81
2020/12/15 04:35:14;;;;;;;24.33;14.25;;;0.00;97.50;;;;;;5055777;28;20036;-80
2020/12/15 04:37:40;;;;;;;21.70;13.90;;;0.00;97.50;;;;;;5055447;28;20048;-81
2020/12/15 04:40:06;;;;;;;22.05;13.52;;;0.00;97.40;;;;;;5056431;28;20021;-80
2020/12/15 04:42:33;;;;;;;21.52;13.85;;;0.10;97.30;;;;;;5055889;28;20384;-81
2020/12/15 04:44:59;;;;;;;19.65;12.38;;;0.10;97.20;;;;;;5055085;28;20075;-80
2020/12/15 04:47:34;;;;;;;21.70;13.50;;;0.00;96.90;;;;;;5055750;28;20021;-86
2020/12/15 04:50:09;;;;;;;22.42;13.25;;;0.00;97.00;;;;;;5055385;28;20021;-80
2020/12/15 04:52:53;;;;;;;22.15;13.35;;;0.00;97.00;;;;;;5057892;28;20060;-79
2020/12/15 04:55:20;;;;;;;23.42;13.48;;;0.00;97.10;;;;;;5056220;28;20048;-79
2020/12/15 04:57:47;;;;;;;23.63;13.88;;;0.10;97.10;;;;;;5055520;28;20025;-79
2020/12/15 05:00:14;;;;;;;26.25;14.60;;;0.00;97.40;;;;;;5054889;28;20033;-79
2020/12/15 05:02:42;;;;;;;20.77;13.00;;;0.10;97.50;;;;;;5056077;28;20025;-79
2020/12/15 05:05:09;;;;;;;22.88;13.02;;;0.10;97.30;;;;;;5055694;28;20067;-80
2020/12/15 05:07:40;;;;;;;23.13;13.43;;;0.20;97.20;;;;;;5055097;28;20564;-82
2020/12/15 05:10:07;;;;;;;22.33;13.80;;;0.10;97.40;;;;;;5055879;28;20036;-79
2020/12/15 05:12:33;;;;;;;22.15;13.18;;;0.20;97.30;;;;;;5055278;28;20455;-79
2020/12/15 05:14:59;;;;;;;23.38;14.05;;;0.10;97.20;;;;;;5055199;28;20056;-80
2020/12/15 05:17:28;;;;;;;22.35;13.30;;;0.20;97.20;;;;;;5055161;28;20040;-80
2020/12/15 05:19:54;;;;;;;23.73;13.13;;;0.20;97.30;;;;;;5054678;28;20021;-80
2020/12/15 05:22:19;;;;;;;20.05;13.07;;;0.10;97.00;;;;;;5055955;28;20025;-79
2020/12/15 05:24:48;;;;;;;25.20;14.18;;;0.20;96.80;;;;;;5055885;28;20040;-80
2020/12/15 05:27:18;;;;;;;21.92;13.10;;;0.20;96.70;;;;;;5060054;28;20013;-79
2020/12/15 05:29:44;;;;;;;20.70;13.10;;;0.20;97.00;;;;;;5056395;28;20484;-80
2020/12/15 05:32:10;;;;;;;40.15;16.00;;;0.20;96.60;;;;;;5060476;28;20021;-84
2020/12/15 05:34:37;;;;;;;79.60;25.55;;;0.60;99.90;;;;;;5058049;28;20087;-79
2020/12/15 05:37:03;;;;;;;44.95;18.90;;;0.80;99.90;;;;;;5053463;28;20106;-81
2020/12/15 05:39:29;;;;;;;23.33;14.95;;;0.60;99.90;;;;;;5053912;28;20037;-81
2020/12/15 05:42:07;;;;;;;26.63;15.43;;;0.50;98.20;;;;;;5053479;28;20024;-84
2020/12/15 05:44:35;;;;;;;23.27;14.82;;;0.40;97.50;;;;;;5053295;28;20041;-79
2020/12/15 05:47:06;;;;;;;26.23;15.70;;;0.40;97.30;;;;;;5070470;28;20079;-80
2020/12/15 05:49:33;;;;;;;38.10;25.13;;;0.40;97.10;;;;;;5053528;28;20021;-85
2020/12/15 05:52:00;;;;;;;24.15;14.95;;;0.30;97.30;;;;;;5053268;28;20427;-81
2020/12/15 05:54:26;;;;;;;23.48;13.77;;;0.30;97.40;;;;;;5054436;28;20021;-81
2020/12/15 05:57:05;;;;;;;24.27;13.30;;;0.30;97.50;;;;;;5054804;28;20029;-81
2020/12/15 05:59:33;;;;;;;29.60;18.02;;;0.30;96.80;;;;;;5053161;28;20542;-80
2020/12/15 06:02:05;;;;;;;26.35;15.35;;;0.30;97.30;;;;;;5054909;28;20029;-81
2020/12/15 06:04:35;;;;;;;29.27;15.77;;;0.20;97.00;;;;;;5053896;28;20389;-81
2020/12/15 06:07:02;;;;;;;28.10;15.30;;;0.20;97.10;;;;;;5053057;28;20033;-82
2020/12/15 06:09:30;;;;;;;25.88;12.95;;;0.20;97.40;;;;;;5054296;28;20017;-81
2020/12/15 06:11:56;;;;;;;26.63;14.00;;;0.30;97.70;;;;;;5053286;28;20021;-80
2020/12/15 06:14:24;;;;;;;24.42;13.90;;;0.30;97.90;;;;;;5054050;28;20036;-80
2020/12/15 06:16:50;;;;;;;25.10;14.15;;;0.30;97.20;;;;;;5057156;28;20029;-82
2020/12/15 06:19:18;;;;;;;21.65;13.13;;;0.30;97.30;;;;;;5055971;28;20060;-81
2020/12/15 06:21:56;;;;;;;24.63;13.35;;;0.30;97.00;;;;;;5058989;28;20460;-84
2020/12/15 06:24:27;;;;;;;24.25;13.55;;;0.50;97.20;;;;;;5057114;28;20035;-85
2020/12/15 06:26:55;;;;;;;23.17;13.60;;;0.40;97.10;;;;;;5060136;28;20028;-83
2020/12/15 06:29:31;;;;;;;32.47;16.23;;;0.30;97.10;;;;;;5057069;28;20036;-84
2020/12/15 06:31:57;;;;;;;46.10;32.80;;;0.30;97.30;;;;;;5054498;28;20025;-82
2020/12/15 06:34:28;;;;;;;27.48;15.00;;;0.30;97.60;;;;;;5053166;28;20472;-82
2020/12/15 06:36:55;;;;;;;24.65;13.23;;;0.30;97.50;;;;;;5053707;28;20079;-80
2020/12/15 06:39:22;;;;;;;25.73;13.93;;;0.30;97.20;;;;;;5053352;28;20105;-80
2020/12/15 06:42:03;;;;;;;27.52;15.30;;;0.30;97.10;;;;;;5053790;28;20020;-79
2020/12/15 06:44:38;;;;;;;22.52;12.68;;;0.40;97.40;;;;;;5057051;28;20409;-75
2020/12/15 06:47:04;;;;;;;21.93;12.97;;;0.30;97.20;;;;;;5059751;28;20025;-75
2020/12/15 06:49:35;;;;;;;24.33;13.45;;;0.30;97.30;;;;;;5060239;28;20268;-74
2020/12/15 06:52:04;;;;;;;25.73;14.10;;;0.30;97.20;;;;;;5059464;28;20539;-75
2020/12/15 06:54:34;;;;;;;22.13;12.45;;;0.40;97.10;;;;;;5056333;28;20055;-78
2020/12/15 06:57:05;;;;;;;23.60;12.90;;;0.40;97.10;;;;;;5056456;28;20021;-76
2020/12/15 06:59:35;;;;;;;19.65;12.20;;;0.40;96.90;;;;;;5061895;28;20036;-77
2020/12/15 07:02:16;;;;;;;23.63;12.80;;;0.40;96.40;;;;;;5059198;28;20021;-76
2020/12/15 07:04:46;;;;;;;20.38;11.85;;;1.00;99.90;;;;;;5056034;28;20037;-75
2020/12/15 07:07:14;;;;;;;20.75;12.75;;;1.70;99.90;;;;;;5051655;28;20036;-75
2020/12/15 07:09:40;;;;;;;20.83;12.00;;;1.30;99.90;;;;;;5052372;28;20120;-75
2020/12/15 07:12:16;;;;;;;26.20;12.77;;;1.00;99.90;;;;;;5054017;28;20013;-76
2020/12/15 07:14:50;;;;;;;25.77;14.35;;;0.80;97.40;;;;;;5051518;28;20380;-75
2020/12/15 07:17:17;;;;;;;24.85;13.00;;;0.70;96.60;;;;;;5054742;28;20031;-74
2020/12/15 07:19:43;;;;;;;24.08;13.73;;;0.60;96.20;;;;;;5058838;28;20557;-74
2020/12/15 07:22:08;;;;;;;33.15;16.75;;;0.60;96.30;;;;;;5055633;28;20057;-74
2020/12/15 07:24:34;;;;;;;28.88;15.43;;;0.60;96.90;;;;;;5063275;28;20044;-74
2020/12/15 07:27:01;;;;;;;23.70;12.95;;;0.50;97.10;;;;;;5062713;28;20025;-74
2020/12/15 07:29:26;;;;;;;23.17;13.40;;;0.60;96.90;;;;;;5058446;28;20373;-74
2020/12/15 07:31:52;;;;;;;24.92;14.27;;;0.60;96.70;;;;;;5061092;28;20032;-74
2020/12/15 07:34:18;;;;;;;25.77;14.52;;;0.60;97.00;;;;;;5060254;28;20054;-74
2020/12/15 07:36:54;;;;;;;25.38;13.45;;;0.70;97.00;;;;;;5060713;28;20025;-74
2020/12/15 07:39:20;;;;;;;36.72;23.40;;;0.70;96.90;;;;;;5061469;28;20119;-74
2020/12/15 07:44:14;;;;;;;37.97;24.60;;;0.60;97.20;;;;;;5063128;22;20037;-74
2020/12/15 07:46:45;;;;;;;27.25;15.48;;;0.80;97.10;;;;;;5056878;28;20037;-74
2020/12/15 07:49:11;;;;;;;23.73;12.77;;;0.70;97.20;;;;;;5055319;28;20075;-76
2020/12/15 07:51:41;;;;;;;22.13;13.20;;;0.80;96.50;;;;;;5058411;28;20033;-77
2020/12/15 07:54:07;;;;;;;24.02;13.85;;;0.80;96.50;;;;;;5058531;28;20014;-75
2020/12/15 07:56:33;;;;;;;23.52;12.27;;;0.80;96.70;;;;;;5057716;28;20037;-75
2020/12/15 07:59:00;;;;;;;22.80;12.23;;;0.80;96.60;;;;;;5054980;28;20055;-74
2020/12/15 08:01:31;;;;;;;23.42;12.93;;;0.80;96.70;;;;;;5056458;28;20021;-75
2020/12/15 08:04:11;;;;;;;23.48;13.18;;;0.80;96.50;;;;;;5059914;28;20028;-75
2020/12/15 08:06:41;;;;;;;22.33;10.98;;;0.90;96.70;;;;;;5057371;28;20468;-74
2020/12/15 08:09:08;;;;;;;24.65;12.60;;;0.80;96.40;;;;;;5066433;28;20079;-75
2020/12/15 08:11:35;;;;;;;28.27;17.65;;;0.80;96.60;;;;;;5066969;28;20013;-74
2020/12/15 08:14:04;;;;;;;26.08;15.43;;;0.80;97.10;;;;;;5053967;28;20028;-84
2020/12/15 08:16:31;;;;;;;24.95;13.82;;;0.80;97.00;;;;;;5055502;28;20175;-80
2020/12/15 08:19:01;;;;;;;26.30;13.02;;;0.90;96.70;;;;;;5056912;28;20488;-78
2020/12/15 08:21:45;;;;;;;22.30;12.95;;;0.90;96.70;;;;;;5061236;28;20005;-81
2020/12/15 08:24:12;;;;;;;20.63;12.38;;;0.90;96.50;;;;;;5061180;28;20035;-77
2020/12/15 08:26:39;;;;;;;23.10;13.35;;;0.90;96.10;;;;;;5061857;28;20048;-80
2020/12/15 08:29:09;;;;;;;27.23;14.60;;;0.90;96.40;;;;;;5064522;28;20017;-78
2020/12/15 08:31:43;;;;;;;22.02;11.85;;;0.90;96.70;;;;;;5062755;28;20075;-80
2020/12/15 08:34:11;;;;;;;27.55;14.68;;;0.90;96.50;;;;;;5057182;28;20082;-79
2020/12/15 08:36:41;;;;;;;31.30;20.17;;;0.90;96.60;;;;;;5058254;28;20079;-81
2020/12/15 08:39:10;;;;;;;30.63;21.58;;;0.90;96.60;;;;;;5056112;28;20021;-75
2020/12/15 08:41:36;;;;;;;22.05;11.98;;;0.90;96.70;;;;;;5057903;28;20044;-78
2020/12/15 08:44:02;;;;;;;33.50;19.95;;;1.20;96.30;;;;;;5073836;22;20475;-76
2020/12/15 08:46:38;;;;;;;23.50;13.38;;;1.00;96.10;;;;;;5074333;22;20091;-78
2020/12/15 08:49:25;;;;;;;28.33;18.48;;;1.00;96.00;;;;;;5073966;22;20021;-74
2020/12/15 08:51:55;;;;;;;22.33;11.85;;;0.90;96.50;;;;;;5065229;28;20092;-76
2020/12/15 08:54:21;;;;;;;23.45;13.43;;;1.00;96.20;;;;;;5063440;28;20067;-84
2020/12/15 08:56:47;;;;;;;22.45;12.57;;;1.00;96.00;;;;;;5061328;28;20017;-83
2020/12/15 08:59:21;;;;;;;49.95;25.13;;;1.10;95.70;;;;;;5060621;28;20021;-75
2020/12/15 09:04:26;;;;;;;21.48;13.43;;;1.10;95.90;;;;;;5066988;22;20099;-75
2020/12/15 09:06:52;;;;;;;24.13;14.82;;;1.10;96.10;;;;;;5063817;28;20021;-84
2020/12/15 09:09:26;;;;;;;24.00;13.20;;;1.60;99.90;;;;;;5061605;28;20067;-78
2020/12/15 09:11:55;;;;;;;19.00;11.90;;;1.50;96.00;;;;;;5063302;28;20033;-78
2020/12/15 09:14:21;;;;;;;21.67;12.10;;;1.50;95.20;;;;;;5058225;28;20024;-78
2020/12/15 09:16:47;;;;;;;22.65;13.00;;;1.30;95.10;;;;;;5062069;28;20028;-77
2020/12/15 09:19:17;;;;;;;66.55;23.45;;;1.30;95.20;;;;;;5060857;28;20020;-77
2020/12/15 09:21:58;;;;;;;32.35;15.50;;;1.70;99.90;;;;;;5061568;28;20013;-79
2020/12/15 09:24:23;;;;;;;27.15;15.13;;;1.60;98.20;;;;;;5056790;28;20025;-78
2020/12/15 09:26:49;;;;;;;24.95;14.80;;;1.50;95.80;;;;;;5057596;28;20108;-84
2020/12/15 09:29:15;;;;;;;23.48;13.05;;;1.30;95.70;;;;;;5054898;28;20032;-78
2020/12/15 09:31:41;;;;;;;23.60;12.52;;;1.30;95.80;;;;;;5063573;28;20082;-77
2020/12/15 09:34:06;;;;;;;23.75;12.45;;;1.20;95.50;;;;;;5057389;28;20092;-80
2020/12/15 09:36:33;;;;;;;26.52;13.77;;;1.50;99.90;;;;;;5064451;28;20021;-78
2020/12/15 09:38:59;;;;;;;23.00;13.27;;;1.40;96.20;;;;;;5072909;23;20048;-76
2020/12/15 09:41:25;;;;;;;22.88;12.48;;;1.50;97.70;;;;;;5103432;28;20048;-78
2020/12/15 09:43:50;;;;;;;22.92;12.32;;;1.50;96.10;;;;;;5081454;28;20093;-78
2020/12/15 09:46:19;;;;;;;24.27;12.73;;;1.60;96.10;;;;;;5095677;28;20591;-77
2020/12/15 09:48:45;;;;;;;25.17;14.27;;;1.40;95.40;;;;;;5104815;28;20023;-76
2020/12/15 09:51:12;;;;;;;25.17;13.82;;;1.40;96.00;;;;;;5098292;28;20107;-78
2020/12/15 09:53:38;;;;;;;23.00;13.15;;;1.30;95.30;;;;;;5097628;28;20037;-79
2020/12/15 09:56:03;;;;;;;35.03;21.15;;;1.30;95.30;;;;;;5096562;28;20019;-77
2020/12/15 09:58:30;;;;;;;29.73;17.95;;;1.20;96.00;;;;;;5095178;28;20027;-78
2020/12/15 10:00:55;;;;;;;28.92;13.52;;;1.30;96.00;;;;;;5096101;28;20020;-76
2020/12/15 10:03:21;;;;;;;23.55;13.38;;;1.30;95.60;;;;;;5095172;28;20027;-78
2020/12/15 10:05:48;;;;;;;26.65;14.23;;;1.40;95.80;;;;;;5099856;28;20077;-76
2020/12/15 10:08:14;;;;;;;26.27;14.77;;;1.30;95.80;;;;;;5098737;28;20391;-75
2020/12/15 10:10:40;;;;;;;22.42;13.15;;;1.30;95.30;;;;;;5096977;28;20116;-76
2020/12/15 10:13:06;;;;;;;28.00;14.90;;;1.30;95.50;;;;;;5104024;28;20051;-77
2020/12/15 10:15:32;;;;;;;26.65;14.38;;;1.20;95.80;;;;;;5096554;28;20116;-80
2020/12/15 10:17:59;;;;;;;26.38;15.38;;;1.20;96.00;;;;;;5098500;28;20031;-80
2020/12/15 10:20:26;;;;;;;29.58;14.55;;;1.20;96.00;;;;;;5102474;28;20115;-85
2020/12/15 10:22:52;;;;;;;25.40;13.95;;;1.30;95.90;;;;;;5102089;28;20020;-78
2020/12/15 10:25:19;;;;;;;29.45;16.35;;;1.30;95.70;;;;;;5099009;28;20104;-76
2020/12/15 10:27:45;;;;;;;37.67;23.75;;;1.20;96.10;;;;;;5093287;28;20031;-79
2020/12/15 10:30:11;;;;;;;25.40;14.45;;;1.30;96.60;;;;;;5092881;28;20028;-77
2020/12/15 10:32:37;;;;;;;24.27;14.60;;;1.40;95.80;;;;;;5092863;28;20046;-79
2020/12/15 10:35:03;;;;;;;26.25;14.68;;;1.50;95.50;;;;;;5095738;28;20039;-77
2020/12/15 10:37:29;;;;;;;30.58;18.10;;;1.50;96.00;;;;;;5098562;28;20059;-79
2020/12/15 10:39:54;;;;;;;32.90;17.77;;;1.60;95.40;;;;;;5100210;28;20056;-78
2020/12/15 10:42:20;;;;;;;25.75;16.42;;;1.50;95.70;;;;;;5094674;28;20038;-77
2020/12/15 10:44:46;;;;;;;36.30;22.58;;;1.60;95.90;;;;;;5096106;28;20038;-87
2020/12/15 10:47:13;;;;;;;31.50;19.55;;;1.50;95.50;;;;;;5095482;28;20021;-76
2020/12/15 10:49:38;;;;;;;28.67;16.65;;;1.50;95.90;;;;;;5095451;28;20069;-78
2020/12/15 10:52:04;;;;;;;27.45;16.00;;;1.60;96.00;;;;;;5094019;28;20024;-79
2020/12/15 10:54:30;;;;;;;23.38;15.02;;;2.50;99.90;;;;;;5091445;28;20025;-76
2020/12/15 10:56:56;;;;;;;22.48;14.48;;;2.80;99.90;;;;;;5092866;28;20032;-76
2020/12/15 10:59:21;;;;;;;24.63;15.27;;;2.70;94.70;;;;;;5092235;28;20479;-84
2020/12/15 11:01:51;;;;;;;23.95;13.55;;;2.60;93.60;;;;;;5093718;28;20103;-79
2020/12/15 11:04:18;;;;;;;23.40;14.25;;;2.50;93.70;;;;;;5093692;28;20032;-78
2020/12/15 11:06:45;;;;;;;24.15;14.15;;;2.30;93.80;;;;;;5092689;28;20036;-77
2020/12/15 11:09:14;;;;;;;24.85;14.52;;;2.20;93.60;;;;;;5093138;28;20024;-79
2020/12/15 11:11:44;;;;;;;28.30;16.52;;;2.10;94.30;;;;;;5094137;28;20475;-84
2020/12/15 11:14:10;;;;;;;27.48;16.88;;;2.10;94.80;;;;;;5094141;28;20534;-81
2020/12/15 11:16:36;;;;;;;27.23;15.73;;;2.10;94.70;;;;;;5093358;28;20081;-81
2020/12/15 11:19:03;;;;;;;40.65;24.92;;;2.10;93.80;;;;;;5093852;28;20020;-78
2020/12/15 11:21:28;;;;;;;26.35;15.63;;;2.10;94.20;;;;;;5092591;28;20028;-81
2020/12/15 11:23:54;;;;;;;29.73;18.80;;;2.00;93.80;;;;;;5092288;28;20024;-81
2020/12/15 11:26:19;;;;;;;28.55;16.80;;;3.30;99.90;;;;;;5093872;28;20131;-84
2020/12/15 11:28:45;;;;;;;26.30;15.38;;;3.70;96.80;;;;;;5092598;28;20028;-86
2020/12/15 11:31:12;;;;;;;25.23;15.25;;;3.80;96.70;;;;;;5091853;28;20371;-81
2020/12/15 11:33:39;;;;;;;21.42;13.10;;;4.00;91.20;;;;;;5091690;28;20042;-82
2020/12/15 11:36:05;;;;;;;23.02;14.52;;;3.60;90.70;;;;;;5092815;28;20020;-85
2020/12/15 11:38:30;;;;;;;22.15;14.10;;;3.20;90.90;;;;;;5091411;28;20090;-80
2020/12/15 11:40:56;;;;;;;26.10;15.85;;;2.80;92.00;;;;;;5091640;28;20043;-80
2020/12/15 11:43:22;;;;;;;25.67;15.75;;;2.60;92.70;;;;;;5091624;28;20031;-79
2020/12/15 11:45:48;;;;;;;24.98;14.98;;;2.40;93.00;;;;;;5091976;28;20036;-84
2020/12/15 11:48:13;;;;;;;23.35;15.40;;;2.30;93.40;;;;;;5091902;28;20028;-79
2020/12/15 11:50:39;;;;;;;30.77;17.25;;;2.20;93.70;;;;;;5093398;28;20027;-83
2020/12/15 11:53:04;;;;;;;41.17;22.58;;;2.00;94.20;;;;;;5093813;28;20024;-79
2020/12/15 11:55:30;;;;;;;31.70;17.52;;;2.00;94.30;;;;;;5091911;28;20028;-76
2020/12/15 11:57:56;;;;;;;28.05;15.77;;;1.90;94.70;;;;;;5093391;28;20020;-77
2020/12/15 12:00:22;;;;;;;29.23;16.63;;;1.90;94.60;;;;;;5091974;28;20035;-76
2020/12/15 12:02:48;;;;;;;28.48;17.40;;;2.00;94.70;;;;;;5092576;28;20024;-77
2020/12/15 12:05:18;;;;;;;25.35;16.30;;;2.00;94.10;;;;;;5091833;28;20039;-78
2020/12/15 12:07:43;;;;;;;30.73;18.20;;;2.00;94.60;;;;;;5091776;28;20471;-78
2020/12/15 12:10:10;;;;;;;26.63;16.98;;;2.10;94.30;;;;;;5092224;28;20115;-83
2020/12/15 12:12:36;;;;;;;29.40;17.48;;;2.10;94.60;;;;;;5090821;28;20024;-78
2020/12/15 12:15:02;;;;;;;30.27;17.90;;;2.10;94.10;;;;;;5094581;28;20596;-79
2020/12/15 12:17:28;;;;;;;26.23;16.48;;;2.10;94.10;;;;;;5096999;28;20139;-78
2020/12/15 12:19:54;;;;;;;31.08;17.90;;;2.10;94.10;;;;;;5095921;28;20036;-79
2020/12/15 12:22:20;;;;;;;30.58;16.92;;;2.10;94.30;;;;;;5095734;28;20024;-79
2020/12/15 12:24:45;;;;;;;48.22;22.23;;;2.00;94.40;;;;;;5095386;28;20035;-80
2020/12/15 12:27:11;;;;;;;31.08;16.83;;;3.30;99.90;;;;;;5097555;28;20086;-77
2020/12/15 12:29:37;;;;;;;28.42;17.38;;;3.50;92.20;;;;;;5095540;28;20028;-78
2020/12/15 12:32:02;;;;;;;24.23;16.38;;;3.20;91.50;;;;;;5095489;28;20013;-79
2020/12/15 12:34:28;;;;;;;29.17;16.80;;;3.00;92.40;;;;;;5095296;28;20047;-79
2020/12/15 12:36:54;;;;;;;32.05;19.00;;;2.70;92.50;;;;;;5094153;28;20157;-78
2020/12/15 12:39:19;;;;;;;27.17;15.57;;;2.50;92.80;;;;;;5094290;28;20396;-78
2020/12/15 12:41:52;;;;;;;27.20;15.10;;;2.30;93.50;;;;;;5093937;28;20020;-80